createdAt,value
2018-06-05T00:00:14.990Z,15.5
2018-06-05T00:01:17.033Z,15.5
2018-06-05T00:02:19.085Z,15.5
2018-06-05T00:03:21.125Z,15.5
2018-06-05T00:04:23.148Z,15.5
2018-06-05T00:05:25.190Z,15.5
2018-06-05T00:06:27.234Z,15.5
2018-06-05T00:07:29.273Z,15.5
2018-06-05T00:08:31.314Z,15.5
2018-06-05T00:09:33.357Z,15.5
2018-06-05T00:10:35.707Z,15.4
2018-06-05T00:11:38.121Z,15.4
2018-06-05T00:12:40.548Z,15.4
2018-06-05T00:13:42.605Z,15.4
2018-06-05T00:14:44.631Z,15.4
2018-06-05T00:15:46.679Z,15.4
2018-06-05T00:16:48.714Z,15.4
2018-06-05T00:17:51.320Z,15.3
2018-06-05T00:18:53.350Z,15.4
2018-06-05T00:19:55.388Z,15.4
2018-06-05T00:20:57.438Z,15.3
2018-06-05T00:21:59.474Z,15.3
2018-06-05T00:23:01.511Z,15.2
2018-06-05T00:24:03.844Z,15.2
2018-06-05T00:25:05.888Z,15.2
2018-06-05T00:26:07.936Z,15.2
2018-06-05T00:27:09.973Z,15.2
2018-06-05T00:28:12.012Z,15.2
2018-06-05T00:29:14.332Z,15.1
2018-06-05T00:30:16.384Z,15.1
2018-06-05T00:31:18.424Z,15.1
2018-06-05T00:32:20.463Z,15.1
2018-06-05T00:33:22.509Z,15.1
2018-06-05T00:34:24.543Z,15.1
2018-06-05T00:35:26.595Z,15.1
2018-06-05T00:36:28.621Z,15
2018-06-05T00:37:31.235Z,15
2018-06-05T00:38:33.279Z,14.9
2018-06-05T00:39:35.702Z,14.9
2018-06-05T00:40:37.741Z,14.9
2018-06-05T00:41:39.775Z,14.9
2018-06-05T00:42:41.814Z,14.9
2018-06-05T00:43:43.855Z,14.9
2018-06-05T00:44:46.181Z,14.8
2018-06-05T00:45:48.227Z,14.8
2018-06-05T00:46:50.266Z,14.8
2018-06-05T00:47:52.297Z,14.8
2018-06-05T00:48:54.647Z,14.7
2018-06-05T00:49:56.682Z,14.7
2018-06-05T00:50:58.721Z,14.7
2018-06-05T00:52:00.765Z,14.7
2018-06-05T00:53:02.803Z,14.7
2018-06-05T00:54:04.854Z,14.7
2018-06-05T00:55:06.889Z,14.6
2018-06-05T00:56:08.952Z,14.7
2018-06-05T00:57:10.959Z,14.7
2018-06-05T00:58:12.997Z,14.6
2018-06-05T00:59:15.032Z,14.6
2018-06-05T01:00:17.077Z,14.6
2018-06-05T01:01:19.402Z,14.6
2018-06-05T01:02:21.447Z,14.6
2018-06-05T01:03:23.764Z,14.5
2018-06-05T01:04:26.105Z,14.6
2018-06-05T01:05:28.146Z,14.6
2018-06-05T01:06:30.181Z,14.6
2018-06-05T01:07:32.223Z,14.6
2018-06-05T01:08:34.256Z,14.6
2018-06-05T01:09:36.288Z,14.6
2018-06-05T01:10:38.333Z,14.6
2018-06-05T01:11:40.375Z,14.7
2018-06-05T01:12:42.407Z,14.7
2018-06-05T01:13:44.440Z,14.7
2018-06-05T01:14:46.486Z,14.7
2018-06-05T01:15:48.529Z,14.7
2018-06-05T01:16:50.561Z,14.7
2018-06-05T01:17:52.608Z,14.7
2018-06-05T01:18:54.645Z,14.7
2018-06-05T01:19:56.675Z,14.8
2018-06-05T01:20:58.710Z,14.8
2018-06-05T01:22:00.744Z,14.8
2018-06-05T01:23:02.793Z,14.8
2018-06-05T01:24:05.110Z,14.8
2018-06-05T01:25:07.139Z,14.8
2018-06-05T01:26:09.186Z,14.8
2018-06-05T01:27:11.223Z,14.8
2018-06-05T01:28:13.247Z,14.9
2018-06-05T01:29:15.303Z,14.9
2018-06-05T01:30:17.341Z,14.9
2018-06-05T01:31:19.382Z,14.9
2018-06-05T01:32:21.420Z,14.8
2018-06-05T01:33:23.452Z,14.8
2018-06-05T01:34:25.504Z,14.8
2018-06-05T01:35:27.527Z,14.9
2018-06-05T01:36:29.870Z,14.9
2018-06-05T01:37:31.916Z,14.9
2018-06-05T01:38:33.943Z,14.8
2018-06-05T01:39:35.980Z,14.8
2018-06-05T01:40:38.014Z,14.9
2018-06-05T01:41:40.058Z,14.8
2018-06-05T01:42:42.677Z,14.9
2018-06-05T01:43:44.723Z,14.9
2018-06-05T01:44:46.770Z,14.9
2018-06-05T01:45:49.113Z,14.9
2018-06-05T01:46:51.158Z,14.8
2018-06-05T01:47:53.475Z,14.9
2018-06-05T01:48:55.508Z,14.9
2018-06-05T01:49:57.547Z,14.9
2018-06-05T01:50:59.596Z,14.8
2018-06-05T01:52:01.636Z,14.9
2018-06-05T01:53:03.668Z,14.8
2018-06-05T01:54:05.710Z,14.9
2018-06-05T01:55:08.054Z,14.9
2018-06-05T01:56:10.380Z,14.9
2018-06-05T01:57:12.711Z,14.9
2018-06-05T01:58:14.745Z,14.9
2018-06-05T01:59:16.788Z,14.9
2018-06-05T02:00:18.814Z,14.9
2018-06-05T02:01:20.853Z,14.8
2018-06-05T02:02:22.887Z,14.9
2018-06-05T02:03:24.927Z,14.9
2018-06-05T02:04:26.961Z,14.8
2018-06-05T02:05:28.990Z,14.8
2018-06-05T02:06:31.029Z,14.9
2018-06-05T02:07:33.067Z,14.9
2018-06-05T02:08:35.104Z,14.9
2018-06-05T02:09:37.151Z,14.9
2018-06-05T02:10:39.572Z,14.9
2018-06-05T02:11:41.601Z,14.9
2018-06-05T02:12:43.641Z,14.8
2018-06-05T02:13:45.684Z,14.8
2018-06-05T02:14:47.725Z,14.7
2018-06-05T02:15:49.760Z,14.7
2018-06-05T02:16:52.469Z,14.7
2018-06-05T02:17:54.790Z,14.7
2018-06-05T02:18:56.824Z,14.8
2018-06-05T02:19:58.878Z,14.8
2018-06-05T02:21:00.912Z,14.8
2018-06-05T02:22:02.956Z,14.8
2018-06-05T02:23:04.986Z,14.7
2018-06-05T02:24:07.323Z,14.8
2018-06-05T02:25:09.355Z,14.8
2018-06-05T02:26:11.386Z,14.8
2018-06-05T02:27:13.714Z,14.7
2018-06-05T02:28:15.746Z,14.8
2018-06-05T02:29:17.786Z,14.7
2018-06-05T02:30:20.398Z,14.7
2018-06-05T02:31:22.441Z,14.7
2018-06-05T02:32:24.872Z,14.7
2018-06-05T02:33:27.296Z,14.7
2018-06-05T02:34:29.340Z,14.7
2018-06-05T02:35:31.770Z,14.7
2018-06-05T02:36:33.815Z,14.7
2018-06-05T02:37:36.135Z,14.8
2018-06-05T02:38:38.176Z,14.7
2018-06-05T02:39:40.607Z,14.8
2018-06-05T02:40:42.643Z,14.8
2018-06-05T02:41:44.685Z,14.7
2018-06-05T02:42:47.044Z,14.6
2018-06-05T02:43:49.090Z,14.7
2018-06-05T02:44:51.691Z,14.7
2018-06-05T02:45:53.731Z,14.7
2018-06-05T02:46:56.056Z,14.6
2018-06-05T02:47:58.484Z,14.6
2018-06-05T02:49:00.909Z,14.7
2018-06-05T02:50:02.955Z,14.7
2018-06-05T02:51:05.393Z,14.6
2018-06-05T02:52:07.725Z,14.6
2018-06-05T02:53:09.775Z,14.6
2018-06-05T02:54:11.814Z,14.6
2018-06-05T02:55:14.521Z,14.6
2018-06-05T02:56:16.854Z,14.7
2018-06-05T02:57:19.282Z,14.7
2018-06-05T02:58:21.327Z,14.6
2018-06-05T02:59:23.366Z,14.7
2018-06-05T03:00:26.075Z,14.6
2018-06-05T03:01:28.122Z,14.7
2018-06-05T03:02:31.121Z,14.7
2018-06-05T03:03:33.182Z,14.6
2018-06-05T03:04:35.529Z,14.6
2018-06-05T03:05:38.259Z,14.6
2018-06-05T03:06:40.302Z,14.6
2018-06-05T03:07:42.347Z,14.6
2018-06-05T03:08:44.823Z,14.6
2018-06-05T03:09:47.196Z,14.6
2018-06-05T03:10:49.866Z,14.6
2018-06-05T03:11:51.931Z,14.6
2018-06-05T03:12:54.295Z,14.6
2018-06-05T03:13:56.938Z,14.5
2018-06-05T03:14:59.322Z,14.6
2018-06-05T03:16:01.379Z,14.6
2018-06-05T03:17:03.442Z,14.6
2018-06-05T03:18:05.803Z,14.6
2018-06-05T03:19:08.244Z,14.6
2018-06-05T03:20:10.334Z,14.5
2018-06-05T03:21:12.366Z,14.6
2018-06-05T03:22:14.724Z,14.5
2018-06-05T03:23:16.808Z,14.6
2018-06-05T03:24:18.837Z,14.6
2018-06-05T03:25:20.884Z,14.5
2018-06-05T03:26:22.965Z,14.5
2018-06-05T03:27:25.013Z,14.5
2018-06-05T03:28:27.091Z,14.5
2018-06-05T03:29:29.507Z,14.5
2018-06-05T03:30:31.906Z,14.5
2018-06-05T03:31:34.253Z,14.5
2018-06-05T03:32:36.291Z,14.5
2018-06-05T03:33:38.390Z,14.5
2018-06-05T03:34:40.745Z,14.5
2018-06-05T03:35:42.816Z,14.5
2018-06-05T03:36:44.888Z,14.5
2018-06-05T03:37:46.943Z,14.5
2018-06-05T03:38:49.033Z,14.5
2018-06-05T03:39:51.079Z,14.5
2018-06-05T03:40:53.178Z,14.5
2018-06-05T03:42:14.675Z,14.6
2018-06-05T03:43:16.666Z,14.6
2018-06-05T03:44:18.665Z,14.6
2018-06-05T03:45:20.658Z,14.6
2018-06-05T03:46:23.047Z,14.6
2018-06-05T03:47:25.054Z,14.6
2018-06-05T03:48:27.053Z,14.6
2018-06-05T03:49:29.044Z,14.6
2018-06-05T03:50:31.325Z,14.6
2018-06-05T03:51:33.326Z,14.5
2018-06-05T03:52:35.317Z,14.6
2018-06-05T03:53:37.880Z,14.6
2018-06-05T03:54:39.879Z,14.6
2018-06-05T03:55:42.167Z,14.6
2018-06-05T03:56:44.178Z,14.6
2018-06-05T03:57:46.163Z,14.7
2018-06-05T03:58:48.162Z,14.7
2018-06-05T03:59:50.163Z,14.7
2018-06-05T04:00:52.153Z,14.7
2018-06-05T04:01:54.145Z,14.6
2018-06-05T04:02:56.528Z,14.7
2018-06-05T04:03:58.535Z,14.7
2018-06-05T04:05:00.538Z,14.7
2018-06-05T04:06:02.825Z,14.7
2018-06-05T04:07:05.385Z,14.7
2018-06-05T04:08:07.388Z,14.7
2018-06-05T04:09:09.380Z,14.7
2018-06-05T04:10:11.427Z,14.6
2018-06-05T04:11:13.661Z,14.7
2018-06-05T04:12:15.659Z,14.7
2018-06-05T04:13:17.642Z,14.7
2018-06-05T04:14:19.648Z,14.7
2018-06-05T04:15:21.638Z,14.7
2018-06-05T04:16:23.908Z,14.6
2018-06-05T04:17:25.912Z,14.7
2018-06-05T04:18:27.915Z,14.7
2018-06-05T04:19:29.904Z,14.7
2018-06-05T04:20:31.905Z,14.8
2018-06-05T04:21:33.903Z,14.8
2018-06-05T04:22:35.888Z,14.8
2018-06-05T04:23:37.887Z,14.7
2018-06-05T04:24:39.890Z,14.7
2018-06-05T04:25:42.188Z,14.8
2018-06-05T04:26:44.180Z,14.8
2018-06-05T04:27:46.183Z,14.8
2018-06-05T04:28:48.184Z,14.9
2018-06-05T04:29:50.177Z,14.8
2018-06-05T04:30:52.177Z,14.7
2018-06-05T04:31:54.176Z,14.8
2018-06-05T04:32:56.173Z,14.7
2018-06-05T04:33:58.169Z,14.8
2018-06-05T04:35:00.163Z,14.8
2018-06-05T04:36:02.483Z,14.8
2018-06-05T04:37:04.443Z,14.8
2018-06-05T04:38:06.431Z,14.8
2018-06-05T04:39:08.442Z,14.8
2018-06-05T04:40:10.752Z,14.9
2018-06-05T04:41:13.055Z,14.9
2018-06-05T04:42:15.059Z,14.9
2018-06-05T04:43:17.051Z,15
2018-06-05T04:44:19.059Z,14.9
2018-06-05T04:45:21.718Z,14.9
2018-06-05T04:46:23.723Z,14.9
2018-06-05T04:47:25.723Z,14.9
2018-06-05T04:48:27.720Z,15
2018-06-05T04:49:29.713Z,14.9
2018-06-05T04:50:31.702Z,15
2018-06-05T04:51:33.996Z,14.9
2018-06-05T04:52:36.381Z,15
2018-06-05T04:53:39.030Z,15
2018-06-05T04:54:41.033Z,15
2018-06-05T04:55:43.332Z,15
2018-06-05T04:56:45.334Z,14.9
2018-06-05T04:57:47.335Z,15
2018-06-05T04:58:49.322Z,14.9
2018-06-05T04:59:51.317Z,15
2018-06-05T05:00:53.322Z,15
2018-06-05T05:01:55.600Z,15
2018-06-05T05:02:57.585Z,14.9
2018-06-05T05:04:00.249Z,15
2018-06-05T05:05:02.250Z,15
2018-06-05T05:06:04.232Z,15
2018-06-05T05:07:06.234Z,15.1
2018-06-05T05:08:08.238Z,15.1
2018-06-05T05:09:10.238Z,14.9
2018-06-05T05:10:12.229Z,15
2018-06-05T05:11:14.220Z,15
2018-06-05T05:12:16.916Z,15.1
2018-06-05T05:13:18.909Z,15.1
2018-06-05T05:14:20.914Z,15.1
2018-06-05T05:15:22.912Z,15.1
2018-06-05T05:16:24.936Z,15.1
2018-06-05T05:17:26.907Z,15.1
2018-06-05T05:18:29.221Z,15.1
2018-06-05T05:19:31.190Z,15.1
2018-06-05T05:20:33.183Z,15
2018-06-05T05:21:35.174Z,15
2018-06-05T05:22:37.181Z,15.1
2018-06-05T05:23:39.482Z,15
2018-06-05T05:24:41.766Z,14.9
2018-06-05T05:25:44.037Z,15
2018-06-05T05:26:46.040Z,15.1
2018-06-05T05:27:48.424Z,15
2018-06-05T05:28:50.686Z,15
2018-06-05T05:29:52.976Z,15.1
2018-06-05T05:30:54.987Z,15.1
2018-06-05T05:31:56.978Z,15.2
2018-06-05T05:32:58.967Z,15.2
2018-06-05T05:34:00.969Z,15.2
2018-06-05T05:35:02.970Z,15.1
2018-06-05T05:36:04.988Z,15.2
2018-06-05T05:37:07.371Z,15.2
2018-06-05T05:38:09.367Z,15.2
2018-06-05T05:39:11.414Z,15.2
2018-06-05T05:40:13.640Z,15.2
2018-06-05T05:41:15.640Z,15.2
2018-06-05T05:42:17.634Z,15.2
2018-06-05T05:43:19.630Z,15.2
2018-06-05T05:44:21.640Z,15.1
2018-06-05T05:45:23.907Z,15.2
2018-06-05T05:46:26.188Z,15.3
2018-06-05T05:47:28.190Z,15.3
2018-06-05T05:48:30.182Z,15.2
2018-06-05T05:49:32.852Z,15.3
2018-06-05T05:50:34.842Z,15.3
2018-06-05T05:51:37.127Z,15.3
2018-06-05T05:52:39.131Z,15.3
2018-06-05T05:53:41.128Z,15.3
2018-06-05T05:54:43.128Z,15.4
2018-06-05T05:55:45.510Z,15.3
2018-06-05T05:56:47.504Z,15.4
2018-06-05T05:57:49.499Z,15.5
2018-06-05T05:58:51.498Z,15.5
2018-06-05T05:59:53.498Z,15.4
2018-06-05T06:00:55.491Z,15.5
2018-06-05T06:01:57.488Z,15.5
2018-06-05T06:03:00.160Z,15.5
2018-06-05T06:04:02.164Z,15.6
2018-06-05T06:05:04.162Z,15.6
2018-06-05T06:06:06.543Z,15.6
2018-06-05T06:07:08.544Z,15.6
2018-06-05T06:08:10.819Z,15.7
2018-06-05T06:09:12.803Z,15.4
2018-06-05T06:10:15.089Z,15.4
2018-06-05T06:11:17.099Z,15.5
2018-06-05T06:12:19.132Z,15.6
2018-06-05T06:13:21.139Z,15.7
2018-06-05T06:14:23.140Z,15.5
2018-06-05T06:15:25.154Z,15.5
2018-06-05T06:16:27.454Z,15.6
2018-06-05T06:17:29.454Z,15.5
2018-06-05T06:18:31.771Z,15.6
2018-06-05T06:19:33.790Z,15.6
2018-06-05T06:20:35.823Z,15.5
2018-06-05T06:21:37.827Z,15.6
2018-06-05T06:22:39.823Z,15.6
2018-06-05T06:23:41.837Z,15.8
2018-06-05T06:24:43.828Z,15.9
2018-06-05T06:25:45.849Z,15.8
2018-06-05T06:26:48.254Z,15.9
2018-06-05T06:27:50.253Z,15.9
2018-06-05T06:28:52.644Z,15.8
2018-06-05T06:29:54.645Z,15.8
2018-06-05T06:30:57.050Z,15.8
2018-06-05T06:31:59.329Z,15.9
2018-06-05T06:33:01.343Z,16
2018-06-05T06:34:03.353Z,15.8
2018-06-05T06:35:05.365Z,15.8
2018-06-05T06:36:07.369Z,15.9
2018-06-05T06:37:09.369Z,16
2018-06-05T06:38:12.061Z,15.9
2018-06-05T06:39:14.075Z,15.9
2018-06-05T06:40:16.081Z,16.1
2018-06-05T06:41:18.101Z,16
2018-06-05T06:42:20.138Z,16.1
2018-06-05T06:43:22.136Z,16.1
2018-06-05T06:44:24.133Z,15.8
2018-06-05T06:45:26.151Z,15.9
2018-06-05T06:46:28.147Z,16
2018-06-05T06:47:30.160Z,16.1
2018-06-05T06:48:32.217Z,16.2
2018-06-05T06:49:34.504Z,16.1
2018-06-05T06:50:36.510Z,16.2
2018-06-05T06:51:38.540Z,16.2
2018-06-05T06:52:40.563Z,16.2
2018-06-05T06:53:42.635Z,16.2
2018-06-05T06:54:44.927Z,16.2
2018-06-05T06:55:47.213Z,16.1
2018-06-05T06:56:49.234Z,16.2
2018-06-05T06:57:51.227Z,16.2
2018-06-05T06:58:53.251Z,16.1
2018-06-05T06:59:55.253Z,16.1
2018-06-05T07:00:57.562Z,16.1
2018-06-05T07:01:59.558Z,16.1
2018-06-05T07:03:01.571Z,16.3
2018-06-05T07:04:03.863Z,16.2
2018-06-05T07:05:05.861Z,16.3
2018-06-05T07:06:07.867Z,16.3
2018-06-05T07:07:09.869Z,16.3
2018-06-05T07:08:11.887Z,16.3
2018-06-05T07:09:13.875Z,16.3
2018-06-05T07:10:15.886Z,16.2
2018-06-05T07:11:17.886Z,16
2018-06-05T07:12:19.956Z,16
2018-06-05T07:13:21.892Z,16.2
2018-06-05T07:14:23.886Z,16.2
2018-06-05T07:15:25.911Z,16.1
2018-06-05T07:16:27.885Z,16.1
2018-06-05T07:17:29.901Z,16.1
2018-06-05T07:18:31.902Z,16.1
2018-06-05T07:19:33.902Z,16.2
2018-06-05T07:20:35.899Z,16
2018-06-05T07:21:37.897Z,16
2018-06-05T07:22:39.898Z,16.1
2018-06-05T07:23:41.895Z,16.2
2018-06-05T07:24:43.891Z,16.2
2018-06-05T07:25:45.899Z,16.2
2018-06-05T07:26:47.888Z,16.3
2018-06-05T07:27:49.905Z,16.1
2018-06-05T07:28:51.896Z,16.2
2018-06-05T07:29:53.903Z,16.3
2018-06-05T07:30:55.896Z,16.2
2018-06-05T07:31:58.171Z,16.3
2018-06-05T07:33:00.177Z,16.2
2018-06-05T07:34:02.787Z,16.3
2018-06-05T07:35:05.073Z,16.4
2018-06-05T07:36:07.065Z,16.3
2018-06-05T07:37:09.064Z,16.4
2018-06-05T07:38:11.070Z,16.5
2018-06-05T07:39:13.361Z,16.5
2018-06-05T07:40:15.365Z,16.5
2018-06-05T07:41:17.371Z,16.5
2018-06-05T07:42:19.367Z,16.6
2018-06-05T07:43:21.653Z,16.5
2018-06-05T07:44:24.091Z,16.6
2018-06-05T07:45:26.054Z,16.5
2018-06-05T07:46:28.052Z,16.5
2018-06-05T07:47:30.049Z,16.6
2018-06-05T07:48:32.060Z,16.8
2018-06-05T07:49:34.341Z,16.7
2018-06-05T07:50:36.993Z,16.6
2018-06-05T07:51:39.381Z,16.9
2018-06-05T07:52:41.382Z,16.9
2018-06-05T07:53:43.382Z,16.9
2018-06-05T07:54:45.388Z,16.8
2018-06-05T07:55:47.667Z,16.6
2018-06-05T07:56:49.680Z,16.7
2018-06-05T07:57:51.669Z,16.6
2018-06-05T07:58:53.662Z,16.7
2018-06-05T07:59:55.673Z,16.8
2018-06-05T08:00:57.676Z,16.6
2018-06-05T08:01:59.962Z,16.6
2018-06-05T08:03:01.958Z,16.7
2018-06-05T08:04:03.956Z,17
2018-06-05T08:05:05.993Z,16.9
2018-06-05T08:06:08.000Z,16.9
2018-06-05T08:07:10.285Z,17
2018-06-05T08:08:12.668Z,17
2018-06-05T08:09:14.674Z,17
2018-06-05T08:10:16.680Z,17.3
2018-06-05T08:11:18.681Z,17.4
2018-06-05T08:12:21.518Z,17.2
2018-06-05T08:13:23.604Z,17.1
2018-06-05T08:14:25.604Z,17.2
2018-06-05T08:15:27.603Z,17.2
2018-06-05T08:16:29.601Z,17.3
2018-06-05T08:17:31.610Z,17.2
2018-06-05T08:18:33.609Z,17
2018-06-05T08:19:35.601Z,17.2
2018-06-05T08:20:37.886Z,17.2
2018-06-05T08:21:39.903Z,17.3
2018-06-05T08:22:41.903Z,17.4
2018-06-05T08:23:43.920Z,17.1
2018-06-05T08:24:45.917Z,17.4
2018-06-05T08:25:47.924Z,17.5
2018-06-05T08:26:49.929Z,17.6
2018-06-05T08:27:51.929Z,17.6
2018-06-05T08:28:53.934Z,17.5
2018-06-05T08:29:55.938Z,17.6
2018-06-05T08:30:58.209Z,17.7
2018-06-05T08:32:00.224Z,17.6
2018-06-05T08:33:02.219Z,17.7
2018-06-05T08:34:04.221Z,17.7
2018-06-05T08:35:06.257Z,17.5
2018-06-05T08:36:08.913Z,17.4
2018-06-05T08:37:10.917Z,17.5
2018-06-05T08:38:13.295Z,17.8
2018-06-05T08:39:15.306Z,17.9
2018-06-05T08:40:17.337Z,17.9
2018-06-05T08:41:19.371Z,17.8
2018-06-05T08:42:21.370Z,17.8
2018-06-05T08:43:23.389Z,17.9
2018-06-05T08:44:25.397Z,17.8
2018-06-05T08:45:27.427Z,17.7
2018-06-05T08:46:29.455Z,17.8
2018-06-05T08:47:31.442Z,18
2018-06-05T08:48:33.454Z,18.1
2018-06-05T08:49:35.457Z,18.1
2018-06-05T08:50:37.850Z,18.2
2018-06-05T08:51:40.150Z,18.3
2018-06-05T08:52:42.166Z,18.3
2018-06-05T08:53:44.186Z,18.5
2018-06-05T08:54:46.466Z,18.7
2018-06-05T08:55:48.491Z,18.9
2018-06-05T08:56:50.500Z,19
2018-06-05T08:57:52.509Z,18.8
2018-06-05T08:58:54.540Z,19
2018-06-05T08:59:56.951Z,18.8
2018-06-05T09:00:58.931Z,18.7
2018-06-05T09:02:00.939Z,19
2018-06-05T09:03:02.957Z,18.9
2018-06-05T09:04:04.981Z,18.9
2018-06-05T09:05:07.000Z,18.7
2018-06-05T09:06:09.024Z,18.9
2018-06-05T09:07:11.078Z,19
2018-06-05T09:08:13.079Z,19.1
2018-06-05T09:09:15.535Z,19.4
2018-06-05T09:10:17.802Z,19.5
2018-06-05T09:11:19.816Z,19.8
2018-06-05T09:12:21.833Z,19.7
2018-06-05T09:13:23.905Z,19.6
2018-06-05T09:14:25.917Z,19.5
2018-06-05T09:15:28.277Z,19.5
2018-06-05T09:16:30.577Z,19.3
2018-06-05T09:17:32.597Z,19.3
2018-06-05T09:18:34.607Z,19.5
2018-06-05T09:19:36.903Z,19.5
2018-06-05T09:20:38.928Z,19.7
2018-06-05T09:21:40.945Z,19.7
2018-06-05T09:22:42.957Z,19.7
2018-06-05T09:23:44.994Z,19.8
2018-06-05T09:24:47.007Z,20.1
2018-06-05T09:25:49.029Z,20.1
2018-06-05T09:26:51.037Z,19.8
2018-06-05T09:27:53.052Z,19.7
2018-06-05T09:28:55.131Z,19.6
2018-06-05T09:29:57.447Z,19.8
2018-06-05T09:30:59.759Z,19.8
2018-06-05T09:32:01.803Z,20.1
2018-06-05T09:33:04.145Z,19.7
2018-06-05T09:34:06.442Z,19.6
2018-06-05T09:35:08.427Z,19.8
2018-06-05T09:36:10.799Z,19.9
2018-06-05T09:37:13.092Z,19.8
2018-06-05T09:38:16.670Z,20
2018-06-05T09:39:19.012Z,20.1
2018-06-05T09:40:21.021Z,20.2
2018-06-05T09:41:23.057Z,20.1
2018-06-05T09:42:25.076Z,20
2018-06-05T09:43:27.119Z,20.4
2018-06-05T09:44:29.164Z,20.1
2018-06-05T09:45:31.218Z,20.1
2018-06-05T09:46:33.342Z,19.9
2018-06-05T09:47:35.473Z,19.7
2018-06-05T09:48:38.097Z,19.7
2018-06-05T09:49:40.936Z,19.9
2018-06-05T09:50:42.988Z,19.8
2018-06-05T09:51:45.316Z,19.9
2018-06-05T09:52:47.597Z,20
2018-06-05T09:53:49.664Z,19.8
2018-06-05T09:54:52.217Z,19.9
2018-06-05T09:55:54.682Z,19.7
2018-06-05T09:56:56.839Z,19.9
2018-06-05T09:57:59.056Z,19.8
2018-06-05T09:59:01.040Z,20
2018-06-05T10:00:03.159Z,19.9
2018-06-05T10:01:05.233Z,20.2
2018-06-05T10:02:07.580Z,20.1
2018-06-05T10:03:09.687Z,20.3
2018-06-05T10:04:11.945Z,20.2
2018-06-05T10:05:14.312Z,20.7
2018-06-05T10:06:16.407Z,20.9
2018-06-05T10:07:18.469Z,20.6
2018-06-05T10:08:20.521Z,20.6
2018-06-05T10:09:22.610Z,20.4
2018-06-05T10:10:24.705Z,20.3
2018-06-05T10:11:26.997Z,20.3
2018-06-05T10:12:29.338Z,20.2
2018-06-05T10:13:31.417Z,19.9
2018-06-05T10:14:33.550Z,20
2018-06-05T10:15:35.633Z,20.3
2018-06-05T10:16:38.089Z,20.5
2018-06-05T10:17:40.217Z,20.5
2018-06-05T10:18:42.249Z,20.5
2018-06-05T10:19:44.348Z,20.6
2018-06-05T10:20:46.364Z,20.6
2018-06-05T10:21:48.432Z,20.6
2018-06-05T10:22:50.522Z,21
2018-06-05T10:23:52.866Z,21.2
2018-06-05T10:24:54.914Z,20.9
2018-06-05T10:25:57.260Z,20.7
2018-06-05T10:26:59.313Z,20.6
2018-06-05T10:28:01.683Z,20.5
2018-06-05T10:29:04.020Z,20.7
2018-06-05T10:30:06.076Z,20.8
2018-06-05T10:31:08.168Z,21
2018-06-05T10:32:10.513Z,20.8
2018-06-05T10:33:12.851Z,21
2018-06-05T10:34:14.936Z,20.7
2018-06-05T10:35:17.029Z,21
2018-06-05T10:36:19.091Z,20.9
2018-06-05T10:37:21.159Z,21
2018-06-05T10:38:23.295Z,20.9
2018-06-05T10:39:25.386Z,21.1
2018-06-05T10:40:27.476Z,21.3
2018-06-05T10:41:29.568Z,21.7
2018-06-05T10:42:32.199Z,21.6
2018-06-05T10:43:34.331Z,21.5
2018-06-05T10:44:36.379Z,21.4
2018-06-05T10:45:38.453Z,21.4
2018-06-05T10:46:40.880Z,21.4
2018-06-05T10:47:42.924Z,21.3
2018-06-05T10:48:45.004Z,21.2
2018-06-05T10:49:47.083Z,21.2
2018-06-05T10:50:49.172Z,21.4
2018-06-05T10:51:51.625Z,22
2018-06-05T10:52:53.697Z,21.9
2018-06-05T10:53:55.772Z,22.1
2018-06-05T10:54:57.868Z,22.2
2018-06-05T10:55:59.918Z,22.3
2018-06-05T10:57:01.976Z,23
2018-06-05T10:58:04.041Z,22.7
2018-06-05T10:59:06.151Z,22.8
2018-06-05T11:00:08.493Z,22.4
2018-06-05T11:01:10.857Z,22
2018-06-05T11:02:13.198Z,21.9
2018-06-05T11:03:15.256Z,22.1
2018-06-05T11:04:17.313Z,22.5
2018-06-05T11:05:19.382Z,22.9
2018-06-05T11:06:21.501Z,22.9
2018-06-05T11:07:23.563Z,22.5
2018-06-05T11:08:25.698Z,22.4
2018-06-05T11:09:27.771Z,22.5
2018-06-05T11:10:30.245Z,22.7
2018-06-05T11:11:32.657Z,22.7
2018-06-05T11:12:34.732Z,22.7
2018-06-05T11:13:36.881Z,22.6
2018-06-05T11:14:38.979Z,22.6
2018-06-05T11:15:41.430Z,22.8
2018-06-05T11:16:43.469Z,22.8
2018-06-05T11:17:45.943Z,22.7
2018-06-05T11:18:47.997Z,22.9
2018-06-05T11:19:50.088Z,23.2
2018-06-05T11:20:52.162Z,24.1
2018-06-05T11:21:54.285Z,24
2018-06-05T11:22:56.349Z,23.5
2018-06-05T11:23:58.435Z,23.5
2018-06-05T11:25:00.536Z,23.3
2018-06-05T11:26:02.633Z,23.5
2018-06-05T11:27:04.690Z,24.3
2018-06-05T11:28:06.787Z,23.6
2018-06-05T11:29:09.282Z,23.4
2018-06-05T11:30:11.400Z,23.5
2018-06-05T11:31:13.474Z,24.3
2018-06-05T11:32:15.862Z,23.8
2018-06-05T11:33:17.967Z,23.7
2018-06-05T11:34:20.424Z,24.1
2018-06-05T11:35:22.492Z,23.6
2018-06-05T11:36:24.574Z,23.8
2018-06-05T11:37:26.662Z,23.6
2018-06-05T11:38:29.070Z,23.4
2018-06-05T11:39:31.158Z,23.5
2018-06-05T11:40:33.242Z,23.8
2018-06-05T11:41:35.318Z,23.9
2018-06-05T11:42:37.759Z,23.6
2018-06-05T11:43:40.094Z,23.7
2018-06-05T11:44:42.142Z,23.6
2018-06-05T11:45:44.215Z,24.1
2018-06-05T11:46:46.335Z,23.6
2018-06-05T11:47:48.306Z,24
2018-06-05T11:48:50.660Z,23.9
2018-06-05T11:49:52.716Z,24.1
2018-06-05T11:50:54.772Z,24.3
2018-06-05T11:51:56.822Z,25
2018-06-05T11:52:58.882Z,24.3
2018-06-05T11:54:01.013Z,24.8
2018-06-05T11:55:03.849Z,24.1
2018-06-05T11:56:05.906Z,23.7
2018-06-05T11:57:08.351Z,24
2018-06-05T11:58:10.394Z,24.1
2018-06-05T11:59:12.463Z,24.7
2018-06-05T12:00:14.518Z,24.5
2018-06-05T12:01:16.960Z,24.2
2018-06-05T12:02:19.024Z,24.5
2018-06-05T12:03:21.125Z,24.7
2018-06-05T12:04:23.185Z,24.7
2018-06-05T12:05:25.243Z,24.3
2018-06-05T12:06:27.299Z,24.3
2018-06-05T12:07:29.362Z,25
2018-06-05T12:08:31.612Z,24.7
2018-06-05T12:09:33.671Z,24
2018-06-05T12:10:35.745Z,24.3
2018-06-05T12:11:37.789Z,24
2018-06-05T12:12:39.849Z,24.3
2018-06-05T12:13:41.911Z,24
2018-06-05T12:14:43.955Z,24.3
2018-06-05T12:15:46.015Z,24.2
2018-06-05T12:16:48.072Z,24.2
2018-06-05T12:17:50.149Z,24.4
2018-06-05T12:18:52.202Z,24.4
2018-06-05T12:19:54.618Z,24.1
2018-06-05T12:20:56.687Z,24.8
2018-06-05T12:21:58.741Z,25.3
2018-06-05T12:23:00.788Z,25.2
2018-06-05T12:24:03.140Z,25.2
2018-06-05T12:25:05.198Z,25
2018-06-05T12:26:07.255Z,25.4
2018-06-05T12:27:09.597Z,25
2018-06-05T12:28:11.655Z,25.2
2018-06-05T12:29:13.712Z,25
2018-06-05T12:30:15.773Z,25.2
2018-06-05T12:31:17.827Z,25.4
2018-06-05T12:32:19.892Z,25.7
2018-06-05T12:33:21.946Z,25.3
2018-06-05T12:34:24.002Z,25.3
2018-06-05T12:35:26.053Z,25.7
2018-06-05T12:36:28.117Z,25.7
2018-06-05T12:37:30.173Z,25.8
2018-06-05T12:38:32.228Z,25.6
2018-06-05T12:39:34.288Z,24.8
2018-06-05T12:40:36.351Z,24.9
2018-06-05T12:41:38.429Z,24.9
2018-06-05T12:42:40.455Z,25.4
2018-06-05T12:43:42.520Z,25.9
2018-06-05T12:44:44.960Z,25.9
2018-06-05T12:45:47.017Z,25.3
2018-06-05T12:46:49.068Z,25.4
2018-06-05T12:47:51.134Z,25.4
2018-06-05T12:48:53.189Z,25.4
2018-06-05T12:49:55.250Z,25.4
2018-06-05T12:50:57.303Z,25.4
2018-06-05T12:51:59.360Z,25.4
2018-06-05T12:53:01.422Z,25.5
2018-06-05T12:54:03.769Z,25.1
2018-06-05T12:55:05.833Z,24.8
2018-06-05T12:56:07.900Z,25.6
2018-06-05T12:57:09.958Z,25.9
2018-06-05T12:58:12.025Z,25.2
2018-06-05T12:59:14.078Z,25.6
2018-06-05T13:00:16.140Z,25.7
2018-06-05T13:01:18.570Z,25.7
2018-06-05T13:02:20.634Z,25.6
2018-06-05T13:03:22.698Z,26.4
2018-06-05T13:04:24.750Z,26
2018-06-05T13:05:26.826Z,25.8
2018-06-05T13:06:28.860Z,25.4
2018-06-05T13:07:30.927Z,25.3
2018-06-05T13:08:32.993Z,25.1
2018-06-05T13:09:35.334Z,24.7
2018-06-05T13:10:37.399Z,25.9
2018-06-05T13:11:39.452Z,26.3
2018-06-05T13:12:41.522Z,26.1
2018-06-05T13:13:43.584Z,26.4
2018-06-05T13:14:45.635Z,26.8
2018-06-05T13:15:48.081Z,25.6
2018-06-05T13:16:50.144Z,25.8
2018-06-05T13:17:52.206Z,26
2018-06-05T13:18:54.555Z,25.5
2018-06-05T13:19:56.901Z,25.5
2018-06-05T13:20:59.304Z,26.1
2018-06-05T13:22:01.349Z,25.6
2018-06-05T13:23:04.307Z,26.1
2018-06-05T13:24:06.306Z,26.6
2018-06-05T13:25:08.368Z,26.7
2018-06-05T13:26:10.426Z,27.4
2018-06-05T13:27:12.494Z,27.3
2018-06-05T13:28:14.546Z,27
2018-06-05T13:29:16.888Z,26.3
2018-06-05T13:30:18.958Z,26.4
2018-06-05T13:31:21.295Z,26
2018-06-05T13:32:23.364Z,25.7
2018-06-05T13:33:25.422Z,25.9
2018-06-05T13:34:27.477Z,25.5
2018-06-05T13:35:29.545Z,26.3
2018-06-05T13:36:31.655Z,26.5
2018-06-05T13:37:33.744Z,26.3
2018-06-05T13:38:35.743Z,26
2018-06-05T13:39:38.084Z,25.9
2018-06-05T13:40:40.139Z,26.1
2018-06-05T13:41:42.897Z,26.3
2018-06-05T13:42:45.692Z,26.6
2018-06-05T13:43:47.802Z,26.4
2018-06-05T13:44:50.165Z,27.2
2018-06-05T13:45:52.216Z,26.7
2018-06-05T13:46:54.274Z,27.1
2018-06-05T13:47:56.356Z,27.1
2018-06-05T13:48:58.802Z,27.1
2018-06-05T13:50:00.867Z,27.3
2018-06-05T13:51:03.315Z,27.3
2018-06-05T13:52:05.375Z,26.7